Aviation Digital Data Service (ADDS)

Output produced by METARs form (1443 UTC 04 August 2021)
found at http://www.aviationweather.gov/metar/data/
 
EDDK 041420Z 04004KT 360V080 9999 SCT043 21/13 Q1012 NOSIG
EDDK 041350Z 05008KT 9999 SCT043 21/14 Q1012 NOSIG
EDDK 041320Z VRB04KT 9999 FEW037 22/12 Q1012 NOSIG
EDDK 041250Z VRB02KT 9999 FEW037 23/13 Q1013 NOSIG
EDDK 041220Z 27004KT 240V340 9999 FEW032 22/12 Q1013 NOSIG
EDDK 041150Z 25003KT 190V340 9999 FEW023 21/13 Q1013 NOSIG
EDDK 041120Z 27003KT 220V340 9999 FEW018 SCT023 20/14 Q1013 NOSIG
EDDK 041050Z VRB02KT 9999 FEW018 SCT023 20/14 Q1013 NOSIG
TAF EDDK 041100Z 0412/0518 VRB03KT 9999 SCT030 
     TEMPO 0412/0420 03005KT 
     PROB30 
     TEMPO 0504/0508 3500 BR BKN006 
     BECMG 0510/0512 22006KT 
     TEMPO 0510/0518 SHRA BKN030CB 
     PROB30 
     TEMPO 0513/0518 TSRA
       
EDGS 041420Z VRB03KT 9999 FEW029 BKN033 20/12 Q1013
EDGS 041350Z VRB03KT 9999 SCT029 18/11 Q1013
EDGS 041320Z VRB03KT 9999 FEW026 SCT029 18/11 Q1013
EDGS 041250Z VRB03KT 9999 SCT022 18/11 Q1014
EDGS 041220Z VRB03KT 9999 FEW017 BKN021 16/10 Q1014
EDGS 041150Z 15005KT 100V200 9999 FEW015 BKN019 16/11 Q1014
EDGS 041120Z 19005KT 140V240 9999 SCT012 BKN016 16/11 Q1014
EDGS 041050Z VRB03KT 9999 BKN011 16/12 Q1014
TAF EDGS 041400Z 0415/0424 VRB03KT 9999 SCT025 
     TEMPO 0415/0418 08007KT SHRA BKN013CB 
     TEMPO 0421/0424 BKN010
       
EDLW 041420Z 16007KT 120V200 8000 -TSRA FEW023CB BKN040 17/14 Q1013
EDLW 041350Z 06005KT 020V090 9999 FEW014 20/12 Q1012
EDLW 041320Z 36005KT 300V070 9999 FEW041 20/12 Q1012
EDLW 041250Z 34005KT 270V060 9999 FEW036 SCT041 22/13 Q1013
EDLW 041220Z VRB03KT 9999 FEW036 21/12 Q1013
EDLW 041150Z VRB03KT 9999 SCT035 20/12 Q1013
EDLW 041120Z 06005KT 9999 FEW031 SCT035 20/12 Q1013
EDLW 041050Z VRB04KT 9999 FEW036 20/12 Q1013
TAF AMD EDLW 041413Z 0414/0512 04005KT 9999 SCT040 
     TEMPO 0414/0417 SHRA BKN030CB 
     PROB30 
     TEMPO 0414/0416 TSRA 
     BECMG 0417/0420 VRB03KT 
     BECMG 0509/0512 20006KT 
     TEMPO 0510/0512 SHRA BKN020CB
       
EDDL 041420Z 11004KT 080V140 9999 FEW045TCU 20/14 Q1012 NOSIG
EDDL 041350Z 10005KT 070V130 9999 -SHRA SCT045TCU 19/15 Q1013 TEMPO SHRA
EDDL 041320Z 11008KT 080V140 9999 -SHRA SCT045TCU 19/15 Q1013 TEMPO SHRA
EDDL 041250Z 31003KT 270V020 9999 SCT045 21/12 Q1012 NOSIG
EDDL 041220Z VRB03KT CAVOK 22/12 Q1012 NOSIG
EDDL 041150Z VRB03KT CAVOK 22/12 Q1013 NOSIG
EDDL 041120Z VRB03KT 9999 FEW040 22/12 Q1013 NOSIG
EDDL 041050Z 07003KT 010V120 9999 FEW035 22/13 Q1013 NOSIG
TAF EDDL 041100Z 0412/0518 VRB03KT 9999 FEW040 
     TEMPO 0412/0419 36005KT 
     PROB30 
     TEMPO 0505/0507 4000 BR 
     BECMG 0508/0511 22006KT 
     TEMPO 0510/0518 SHRA BKN030CB 
     PROB30 
     TEMPO 0513/0518 TSRA
       
ETNN 041420Z 06002KT 9999 FEW040 BKN120 21/10 Q1012 BLU BLU+ TEMPO WHT
ETNN 041320Z 30002KT 9999 FEW035 BKN120 21/12 Q1012 BLU BLU+ TEMPO WHT
ETNN 041220Z 01005KT 9999 FEW035 SCT120 20/12 Q1013 BLU+BLU+ TEMPO WHT
ETNN 041120Z 01003KT 9999 SCT030 SCT100 19/12 Q1013 BLU+BLU+ TEMPO WHT
TAF ETNN 041300Z 0414/0423 VRB03KT 9999 NSW FEW035 SCT100 
     TEMPO 0414/0418 36008KT 6000 -SHRA BKN020TCU BY ETGL